Time;durP1;ratioP1;P1;durP2;ratioP2;P2;SDS_P1;SDS_P2;PMS_P1;PMS_P2;Temp;Humidity;BMP_temperature;BMP_pressure;BME280_temperature;BME280_humidity;BME280_pressure;Samples;Min_cycle;Max_cycle;Signal;HPM_P1;HPM_P2
2023/06/22 00:01:10;;;;;;;7.57;5.82;;;22.80;78.30;;;;;;5027284;28;20128;-63
2023/06/22 00:03:36;;;;;;;10.05;6.15;;;22.80;78.40;;;;;;5025490;28;20064;-63
2023/06/22 00:06:01;;;;;;;7.00;5.57;;;22.70;78.40;;;;;;5028436;28;20029;-63
2023/06/22 00:08:27;;;;;;;8.85;5.85;;;22.70;78.50;;;;;;5031063;28;20527;-62
2023/06/22 00:10:52;;;;;;;7.13;5.60;;;22.70;78.50;;;;;;5025756;28;20059;-62
2023/06/22 00:13:18;;;;;;;10.23;6.05;;;22.60;78.60;;;;;;5020639;28;20048;-63
2023/06/22 00:15:44;;;;;;;9.77;5.93;;;22.60;78.80;;;;;;5032789;28;20519;-63
2023/06/22 00:18:11;;;;;;;10.18;6.03;;;22.60;78.90;;;;;;5029805;28;20045;-62
2023/06/22 00:20:37;;;;;;;7.97;6.10;;;22.60;79.10;;;;;;5028233;28;20034;-63
2023/06/22 00:23:08;;;;;;;9.95;6.25;;;22.50;79.20;;;;;;5027854;28;20482;-64
2023/06/22 00:25:39;;;;;;;9.73;6.57;;;22.50;79.30;;;;;;5032672;28;20041;-63
2023/06/22 00:28:06;;;;;;;7.18;5.75;;;22.40;79.60;;;;;;5031121;28;20427;-64
2023/06/22 00:30:32;;;;;;;13.73;6.78;;;22.40;79.50;;;;;;5029311;28;20034;-63
2023/06/22 00:32:58;;;;;;;7.75;5.90;;;22.40;79.80;;;;;;5027432;28;20056;-63
2023/06/22 00:35:29;;;;;;;9.27;6.35;;;22.30;79.80;;;;;;5027338;28;20033;-62
2023/06/22 00:38:03;;;;;;;9.70;6.45;;;22.30;80.00;;;;;;5029143;28;20087;-63
2023/06/22 00:40:30;;;;;;;7.97;6.18;;;22.30;80.30;;;;;;5025597;28;20517;-62
2023/06/22 00:42:56;;;;;;;9.05;6.35;;;22.30;80.10;;;;;;5029968;28;20037;-62
2023/06/22 00:45:25;;;;;;;9.15;6.75;;;22.20;80.00;;;;;;5030223;28;20060;-63
2023/06/22 00:47:57;;;;;;;12.02;6.55;;;22.20;80.40;;;;;;5032277;28;20034;-63
2023/06/22 00:50:26;;;;;;;14.52;7.25;;;22.20;80.70;;;;;;5030207;28;20099;-62
2023/06/22 00:52:58;;;;;;;11.70;6.88;;;22.20;80.60;;;;;;5028873;28;20111;-65
2023/06/22 00:55:25;;;;;;;9.55;6.13;;;22.20;80.40;;;;;;5026031;28;20401;-64
2023/06/22 00:57:55;;;;;;;11.20;7.25;;;22.20;80.40;;;;;;5031594;28;20033;-62
2023/06/22 01:00:24;;;;;;;9.52;6.35;;;22.10;81.30;;;;;;5026022;28;20040;-63
2023/06/22 01:02:51;;;;;;;10.40;7.35;;;22.10;80.60;;;;;;5021140;28;20025;-62
2023/06/22 01:05:21;;;;;;;11.55;7.35;;;22.10;80.80;;;;;;5023899;28;20043;-63
2023/06/22 01:07:54;;;;;;;9.32;7.13;;;22.10;80.80;;;;;;5029377;28;20048;-63
2023/06/22 01:10:53;;;;;;;9.07;7.70;;;22.10;80.80;;;;;;5024584;28;20030;-62
2023/06/22 01:13:36;;;;;;;12.48;8.07;;;22.10;81.30;;;;;;5024498;28;20029;-63
2023/06/22 01:16:21;;;;;;;14.65;8.13;;;22.00;81.30;;;;;;5029366;28;20037;-62
2023/06/22 01:18:49;;;;;;;12.48;8.55;;;22.00;81.50;;;;;;5025779;28;20041;-63
2023/06/22 01:21:19;;;;;;;14.10;9.27;;;22.00;80.80;;;;;;5028706;28;20114;-62
2023/06/22 01:24:07;;;;;;;12.27;8.88;;;22.00;81.00;;;;;;5030286;28;20210;-63
2023/06/22 01:26:52;;;;;;;14.23;8.93;;;22.00;81.80;;;;;;5023985;28;20049;-63
2023/06/22 01:29:19;;;;;;;13.03;8.30;;;22.00;81.20;;;;;;5030014;28;20463;-62
2023/06/22 01:31:45;;;;;;;10.77;8.23;;;21.90;81.10;;;;;;5028075;28;20876;-63
2023/06/22 01:34:12;;;;;;;12.80;8.57;;;21.80;81.20;;;;;;5024761;28;20099;-63
2023/06/22 01:36:39;;;;;;;12.48;8.93;;;21.90;81.40;;;;;;5026656;28;20033;-63
2023/06/22 01:39:05;;;;;;;16.42;9.20;;;21.80;81.50;;;;;;5026744;28;20133;-62
2023/06/22 01:41:37;;;;;;;12.93;9.02;;;21.80;81.50;;;;;;5025476;28;20687;-62
2023/06/22 01:44:07;;;;;;;13.07;9.35;;;21.80;82.00;;;;;;5025988;28;20116;-63
2023/06/22 01:46:34;;;;;;;11.55;9.10;;;21.80;81.90;;;;;;5024246;28;20421;-62
2023/06/22 01:49:00;;;;;;;13.40;9.20;;;21.70;81.90;;;;;;5028502;28;20513;-63
2023/06/22 01:51:26;;;;;;;16.10;9.77;;;21.70;81.90;;;;;;5027503;28;20140;-62
2023/06/22 01:53:51;;;;;;;13.57;9.63;;;21.70;82.00;;;;;;5031053;28;20128;-63
2023/06/22 01:56:18;;;;;;;16.42;10.32;;;21.70;82.00;;;;;;5029804;28;20591;-62
2023/06/22 01:59:25;;;;;;;14.25;10.27;;;21.70;82.20;;;;;;5028385;28;20496;-62
2023/06/22 02:02:00;;;;;;;15.57;10.32;;;21.60;83.10;;;;;;4984059;28;20283;-63
2023/06/22 02:04:32;;;;;;;15.23;10.27;;;21.60;82.40;;;;;;5026873;28;20030;-63
2023/06/22 02:06:59;;;;;;;14.38;11.05;;;21.60;82.40;;;;;;5031667;28;20033;-62
2023/06/22 02:09:28;;;;;;;16.60;11.65;;;21.60;82.50;;;;;;5034255;28;20076;-62
2023/06/22 02:11:56;;;;;;;14.38;11.35;;;21.60;82.60;;;;;;5023687;28;20037;-64
2023/06/22 02:14:23;;;;;;;15.38;11.88;;;21.50;82.60;;;;;;5032736;28;20030;-63
2023/06/22 02:16:50;;;;;;;17.00;12.25;;;21.50;82.60;;;;;;5032179;28;20037;-62
2023/06/22 02:19:15;;;;;;;15.88;12.25;;;21.50;82.90;;;;;;5035298;28;20071;-63
2023/06/22 02:21:41;;;;;;;15.63;12.38;;;21.50;82.90;;;;;;5026749;28;20493;-64
2023/06/22 02:24:07;;;;;;;16.95;12.38;;;21.50;83.80;;;;;;5031756;28;20091;-63
2023/06/22 02:26:32;;;;;;;16.10;12.13;;;21.40;83.00;;;;;;5024954;28;20037;-63
2023/06/22 02:28:58;;;;;;;18.98;11.43;;;21.50;83.10;;;;;;5036273;28;20191;-62
2023/06/22 02:31:30;;;;;;;15.20;10.68;;;21.40;83.30;;;;;;5027431;28;20184;-62
2023/06/22 02:33:58;;;;;;;14.57;10.95;;;21.40;83.20;;;;;;5028214;28;20048;-62
2023/06/22 02:36:26;;;;;;;15.50;11.68;;;21.40;83.20;;;;;;5029135;28;20210;-62
2023/06/22 02:38:52;;;;;;;13.70;10.75;;;21.40;83.20;;;;;;5026989;28;20045;-63
2023/06/22 02:41:18;;;;;;;14.70;10.55;;;21.40;83.20;;;;;;5028520;28;20493;-63
2023/06/22 02:43:47;;;;;;;15.40;11.32;;;21.30;83.20;;;;;;5027527;28;20457;-63
2023/06/22 02:46:14;;;;;;;15.35;10.07;;;21.40;83.30;;;;;;5027696;28;20057;-63
2023/06/22 02:48:40;;;;;;;17.83;11.20;;;21.40;83.30;;;;;;5027365;28;20037;-62
2023/06/22 02:51:06;;;;;;;17.48;10.90;;;21.40;83.30;;;;;;5032158;28;20037;-62
2023/06/22 02:53:32;;;;;;;15.40;10.15;;;21.30;83.30;;;;;;5031544;28;20037;-63
2023/06/22 02:55:57;;;;;;;15.35;10.68;;;21.30;83.30;;;;;;5027930;28;20451;-63
2023/06/22 02:58:24;;;;;;;18.30;10.85;;;21.30;83.30;;;;;;5027108;28;20121;-64
2023/06/22 03:00:52;;;;;;;14.77;10.20;;;21.30;83.30;;;;;;5032285;28;20099;-64
2023/06/22 03:03:18;;;;;;;17.70;10.70;;;21.30;83.20;;;;;;5029040;28;20046;-64
2023/06/22 03:05:44;;;;;;;14.57;10.10;;;21.30;83.30;;;;;;5033291;28;20037;-63
2023/06/22 03:08:10;;;;;;;13.65;10.38;;;21.30;83.20;;;;;;5028125;28;20041;-62
2023/06/22 03:10:35;;;;;;;13.95;9.90;;;21.30;83.10;;;;;;5026804;28;20062;-62
2023/06/22 03:13:01;;;;;;;14.50;9.30;;;21.30;83.20;;;;;;5027903;28;20448;-62
2023/06/22 03:15:29;;;;;;;15.93;9.75;;;21.30;83.30;;;;;;5031385;28;20037;-63
2023/06/22 03:17:54;;;;;;;15.00;9.95;;;21.30;83.30;;;;;;5032757;28;20041;-62
2023/06/22 03:20:20;;;;;;;14.10;10.48;;;21.20;83.30;;;;;;5029999;28;20028;-62
2023/06/22 03:22:46;;;;;;;13.80;9.77;;;21.20;83.40;;;;;;5027068;28;20044;-62
2023/06/22 03:25:14;;;;;;;16.98;10.93;;;21.20;83.50;;;;;;5032458;28;20037;-63
2023/06/22 03:27:41;;;;;;;13.15;10.35;;;21.20;83.60;;;;;;5027377;28;20067;-63
2023/06/22 03:30:09;;;;;;;13.70;9.73;;;21.20;83.60;;;;;;5030253;28;20129;-62
2023/06/22 03:32:35;;;;;;;17.45;9.95;;;21.20;83.70;;;;;;5027331;28;20033;-62
2023/06/22 03:35:01;;;;;;;15.77;9.93;;;21.20;83.70;;;;;;5026384;28;20044;-62
2023/06/22 03:37:27;;;;;;;14.27;9.50;;;21.10;83.70;;;;;;5028438;28;20034;-62
2023/06/22 03:39:53;;;;;;;10.23;8.45;;;21.20;83.80;;;;;;5025805;28;20033;-63
2023/06/22 03:42:19;;;;;;;11.77;8.60;;;21.10;84.00;;;;;;5026665;28;20040;-63
2023/06/22 03:44:45;;;;;;;11.18;9.00;;;21.10;84.10;;;;;;5025756;28;20033;-62
2023/06/22 03:47:10;;;;;;;13.05;8.82;;;21.10;84.10;;;;;;5029040;28;20044;-62
2023/06/22 03:49:36;;;;;;;12.90;9.00;;;21.10;84.10;;;;;;5025759;28;20424;-62
2023/06/22 03:52:03;;;;;;;15.13;8.82;;;21.10;84.30;;;;;;5029136;28;20099;-62
2023/06/22 03:54:29;;;;;;;10.73;8.98;;;21.10;84.30;;;;;;5025626;28;20527;-62
2023/06/22 03:56:56;;;;;;;12.30;9.23;;;21.10;84.50;;;;;;5026580;28;20569;-64
2023/06/22 03:59:22;;;;;;;11.85;9.13;;;21.10;84.50;;;;;;5029937;28;20029;-62
2023/06/22 04:01:48;;;;;;;11.07;8.52;;;21.10;84.50;;;;;;5023186;28;20135;-63
2023/06/22 04:04:14;;;;;;;12.23;9.00;;;21.10;84.60;;;;;;5026833;28;20128;-63
2023/06/22 04:06:40;;;;;;;12.27;8.68;;;21.00;84.60;;;;;;5026093;28;21146;-63
2023/06/22 04:09:06;;;;;;;14.60;8.52;;;21.00;84.80;;;;;;5028648;28;20041;-63
2023/06/22 04:11:32;;;;;;;11.45;8.32;;;21.00;84.80;;;;;;5024835;28;20384;-64
2023/06/22 04:13:57;;;;;;;12.73;8.80;;;21.00;85.00;;;;;;5026334;28;20064;-62
2023/06/22 04:16:23;;;;;;;15.50;9.77;;;21.00;84.90;;;;;;5025493;28;20091;-62
2023/06/22 04:18:48;;;;;;;13.40;8.63;;;21.00;85.20;;;;;;5031467;28;20033;-62
2023/06/22 04:21:14;;;;;;;12.15;9.15;;;21.00;85.20;;;;;;5031548;28;20576;-62
2023/06/22 04:23:40;;;;;;;15.48;9.25;;;21.00;85.30;;;;;;5029948;28;20048;-62
2023/06/22 04:26:05;;;;;;;13.57;8.70;;;20.90;85.40;;;;;;5020830;28;20052;-63
2023/06/22 04:28:34;;;;;;;9.63;8.20;;;20.90;85.50;;;;;;5025139;28;20033;-62
2023/06/22 04:31:04;;;;;;;11.80;8.40;;;20.90;85.70;;;;;;5026627;28;20479;-61
2023/06/22 04:33:30;;;;;;;11.75;8.98;;;20.90;85.70;;;;;;5028020;28;20040;-62
2023/06/22 04:35:57;;;;;;;14.02;8.73;;;20.90;85.80;;;;;;5027445;28;20041;-61
2023/06/22 04:38:23;;;;;;;17.30;9.02;;;20.90;85.90;;;;;;5024229;28;20040;-65
2023/06/22 04:40:50;;;;;;;12.65;8.80;;;20.90;85.90;;;;;;5022392;28;20041;-63
2023/06/22 04:43:15;;;;;;;15.60;9.48;;;21.00;86.00;;;;;;5028078;28;20618;-63
2023/06/22 04:45:41;;;;;;;14.93;8.63;;;21.00;86.00;;;;;;5023389;28;20049;-63
2023/06/22 04:48:09;;;;;;;11.43;9.32;;;21.00;86.10;;;;;;5029231;28;20038;-62
2023/06/22 04:50:37;;;;;;;11.80;8.48;;;21.00;86.20;;;;;;5029175;28;20033;-60
2023/06/22 04:53:05;;;;;;;12.07;8.80;;;21.00;86.40;;;;;;5029335;28;20037;-62
2023/06/22 04:55:34;;;;;;;12.02;8.80;;;21.10;86.60;;;;;;5031185;28;20037;-62
2023/06/22 04:58:04;;;;;;;15.07;9.27;;;21.10;86.60;;;;;;5031187;28;20121;-63
2023/06/22 05:00:30;;;;;;;10.68;8.80;;;21.10;86.60;;;;;;5026823;28;20033;-62
2023/06/22 05:02:57;;;;;;;10.38;8.57;;;21.10;86.70;;;;;;5027141;28;20037;-63
2023/06/22 05:05:23;;;;;;;11.52;8.85;;;21.10;86.70;;;;;;5031244;28;20036;-64
2023/06/22 05:07:52;;;;;;;13.55;8.35;;;21.10;86.70;;;;;;5030657;28;20045;-62
2023/06/22 05:10:19;;;;;;;14.60;8.88;;;21.20;86.70;;;;;;5030786;28;20044;-62
2023/06/22 05:12:45;;;;;;;12.45;8.55;;;21.20;86.80;;;;;;5027635;28;20164;-63
2023/06/22 05:15:11;;;;;;;13.65;9.30;;;21.20;86.70;;;;;;5029018;28;20030;-61
2023/06/22 05:17:42;;;;;;;13.73;8.50;;;21.20;86.70;;;;;;5030033;28;20029;-62
2023/06/22 05:20:10;;;;;;;12.75;8.85;;;21.30;86.70;;;;;;5030711;28;20071;-63
2023/06/22 05:22:35;;;;;;;14.80;8.45;;;21.30;86.60;;;;;;5028963;28;20037;-62
2023/06/22 05:25:01;;;;;;;12.32;7.95;;;21.40;86.60;;;;;;5028715;28;20037;-62
2023/06/22 05:27:26;;;;;;;15.60;9.07;;;21.40;86.70;;;;;;5027004;28;20103;-63
2023/06/22 05:29:52;;;;;;;12.32;8.50;;;21.40;86.60;;;;;;5031644;28;20476;-63
2023/06/22 05:32:18;;;;;;;11.10;7.68;;;21.50;86.60;;;;;;5029313;28;20056;-61
2023/06/22 05:34:44;;;;;;;13.00;8.27;;;21.50;86.60;;;;;;5030089;28;20064;-63
2023/06/22 05:37:10;;;;;;;14.07;8.65;;;21.60;86.70;;;;;;5032528;28;20120;-63
2023/06/22 05:39:37;;;;;;;14.18;7.68;;;21.60;86.60;;;;;;5031346;28;20044;-63
2023/06/22 05:42:07;;;;;;;10.20;8.23;;;21.70;86.60;;;;;;5032496;28;20047;-63
2023/06/22 05:44:33;;;;;;;10.80;7.97;;;21.70;86.40;;;;;;5032791;28;20044;-63
2023/06/22 05:46:59;;;;;;;11.63;7.75;;;21.70;86.20;;;;;;5032828;28;20048;-61
2023/06/22 05:49:29;;;;;;;8.88;7.55;;;21.80;85.90;;;;;;5032156;28;20042;-63
2023/06/22 05:51:56;;;;;;;13.27;8.10;;;21.90;86.00;;;;;;5028125;28;20042;-60
2023/06/22 05:54:22;;;;;;;10.45;7.30;;;21.90;85.80;;;;;;5030840;28;20045;-64
2023/06/22 05:56:47;;;;;;;8.32;7.15;;;22.00;85.80;;;;;;5029537;28;20130;-63
2023/06/22 05:59:13;;;;;;;11.50;7.32;;;22.00;85.60;;;;;;5032060;28;20037;-63
2023/06/22 06:01:39;;;;;;;11.43;7.18;;;22.10;85.60;;;;;;5034525;28;20571;-61
2023/06/22 06:04:07;;;;;;;10.70;7.18;;;22.10;85.50;;;;;;5031739;28;20041;-63
2023/06/22 06:06:36;;;;;;;10.63;6.45;;;22.20;85.50;;;;;;5033990;28;20044;-62
2023/06/22 06:09:03;;;;;;;12.88;7.25;;;22.30;85.30;;;;;;5033001;28;20044;-62
2023/06/22 06:11:29;;;;;;;12.43;7.45;;;22.30;85.10;;;;;;5030249;28;20029;-63
2023/06/22 06:13:54;;;;;;;9.80;6.72;;;22.40;84.80;;;;;;5025603;28;20381;-62
2023/06/22 06:16:20;;;;;;;11.55;6.65;;;22.40;84.40;;;;;;5030357;28;20045;-62
2023/06/22 06:18:45;;;;;;;9.13;6.72;;;22.50;84.20;;;;;;5030284;28;20064;-61
2023/06/22 06:21:11;;;;;;;13.27;7.13;;;22.60;84.00;;;;;;5027980;28;20041;-62
2023/06/22 06:23:36;;;;;;;9.70;6.68;;;22.60;83.90;;;;;;5027325;28;20275;-63
2023/06/22 06:26:05;;;;;;;8.75;6.95;;;22.70;83.70;;;;;;5032911;28;20034;-63
2023/06/22 06:28:31;;;;;;;8.55;6.45;;;22.70;83.70;;;;;;5031926;28;20041;-63
2023/06/22 06:30:56;;;;;;;8.23;6.47;;;22.80;83.60;;;;;;5034224;28;20030;-63
2023/06/22 06:33:22;;;;;;;9.68;6.25;;;22.90;84.30;;;;;;5032525;28;20139;-64
2023/06/22 06:35:47;;;;;;;9.40;6.78;;;22.90;83.30;;;;;;5031566;28;20489;-63
2023/06/22 06:38:13;;;;;;;10.02;6.57;;;22.90;83.40;;;;;;5030436;28;20134;-63
2023/06/22 06:40:38;;;;;;;9.15;6.30;;;23.00;83.10;;;;;;5028460;28;20041;-64
2023/06/22 06:43:04;;;;;;;12.70;6.90;;;23.00;82.60;;;;;;5032666;28;20098;-64
2023/06/22 06:45:32;;;;;;;8.57;6.72;;;23.10;82.40;;;;;;5028749;28;20045;-61
2023/06/22 06:47:58;;;;;;;8.25;6.10;;;23.20;82.20;;;;;;5033204;28;20033;-63
2023/06/22 06:50:24;;;;;;;10.20;6.50;;;23.20;82.00;;;;;;5032340;28;20512;-62
2023/06/22 06:52:50;;;;;;;9.85;6.85;;;23.30;81.60;;;;;;5032600;28;20116;-63
2023/06/22 06:55:16;;;;;;;11.38;6.53;;;23.30;81.50;;;;;;5031245;28;20037;-62
2023/06/22 06:57:42;;;;;;;10.80;6.82;;;23.40;81.40;;;;;;5029724;28;20048;-63
2023/06/22 07:00:13;;;;;;;8.75;6.65;;;23.40;81.20;;;;;;5030571;28;20472;-63
2023/06/22 07:02:44;;;;;;;9.68;5.82;;;23.50;80.80;;;;;;5029471;28;20116;-63
2023/06/22 07:05:11;;;;;;;10.52;6.45;;;23.50;81.00;;;;;;5024876;28;20033;-63
2023/06/22 07:07:37;;;;;;;11.23;6.68;;;23.60;80.80;;;;;;5029771;28;20412;-63
2023/06/22 07:10:04;;;;;;;11.40;6.60;;;23.60;80.80;;;;;;5031109;28;20045;-61
2023/06/22 07:12:29;;;;;;;13.05;6.35;;;23.70;80.50;;;;;;5025942;28;20406;-62
2023/06/22 07:15:02;;;;;;;7.43;6.18;;;23.80;80.50;;;;;;5032554;28;20041;-63
2023/06/22 07:17:28;;;;;;;9.70;6.32;;;23.80;80.40;;;;;;5022602;28;20037;-63
2023/06/22 07:19:54;;;;;;;10.38;6.65;;;23.90;80.60;;;;;;5032684;28;20069;-64
2023/06/22 07:22:19;;;;;;;9.07;6.05;;;24.00;80.20;;;;;;5030202;28;20048;-64
2023/06/22 07:24:45;;;;;;;8.05;6.30;;;24.10;80.60;;;;;;5030314;28;20480;-62
2023/06/22 07:27:12;;;;;;;8.98;6.13;;;24.10;80.40;;;;;;5029366;28;20038;-64
2023/06/22 07:29:39;;;;;;;11.05;6.57;;;24.20;80.10;;;;;;5028275;28;20056;-63
2023/06/22 07:32:05;;;;;;;9.38;6.65;;;24.30;79.10;;;;;;5029562;28;20459;-63
2023/06/22 07:34:31;;;;;;;9.05;5.53;;;24.40;78.80;;;;;;5028574;28;20048;-63
2023/06/22 07:36:56;;;;;;;8.00;5.75;;;24.40;78.70;;;;;;5026664;28;20440;-63
2023/06/22 07:39:25;;;;;;;11.23;6.28;;;24.50;78.40;;;;;;5031103;28;20040;-62
2023/06/22 07:41:51;;;;;;;9.40;6.00;;;24.60;78.60;;;;;;5032131;28;20045;-62
2023/06/22 07:44:16;;;;;;;9.80;5.50;;;24.70;78.40;;;;;;5028967;28;20038;-64
2023/06/22 07:46:42;;;;;;;11.32;6.45;;;24.70;78.00;;;;;;5028854;28;20037;-64
2023/06/22 07:49:08;;;;;;;10.32;6.30;;;24.80;77.90;;;;;;5028808;28;20380;-64
2023/06/22 07:51:34;;;;;;;11.48;6.93;;;24.90;77.70;;;;;;5026058;28;20741;-63
2023/06/22 07:53:59;;;;;;;9.20;6.25;;;25.00;77.50;;;;;;5027475;28;20044;-62
2023/06/22 07:56:25;;;;;;;8.70;6.20;;;25.10;77.20;;;;;;5025733;28;20416;-64
2023/06/22 07:58:51;;;;;;;9.27;5.88;;;25.20;76.90;;;;;;5028628;28;20129;-64
2023/06/22 08:01:17;;;;;;;10.65;6.53;;;25.30;76.70;;;;;;5023665;28;20050;-63
2023/06/22 08:03:42;;;;;;;9.93;6.32;;;25.40;76.40;;;;;;5026016;28;20070;-64
2023/06/22 08:06:09;;;;;;;10.82;6.10;;;25.50;76.10;;;;;;5017105;28;20056;-63
2023/06/22 08:08:36;;;;;;;11.18;6.43;;;25.50;76.60;;;;;;5028333;28;20033;-63
2023/06/22 08:11:01;;;;;;;9.40;6.20;;;25.60;76.00;;;;;;5029339;28;20053;-63
2023/06/22 08:13:27;;;;;;;9.98;6.22;;;25.70;76.00;;;;;;5029585;28;20241;-64
2023/06/22 08:15:52;;;;;;;9.88;6.00;;;25.80;75.40;;;;;;5029773;28;20044;-64
2023/06/22 08:18:18;;;;;;;9.10;5.78;;;25.90;75.30;;;;;;5024189;28;20041;-63
2023/06/22 08:20:43;;;;;;;8.75;6.63;;;26.00;75.30;;;;;;5027975;28;20033;-63
2023/06/22 08:23:09;;;;;;;10.52;6.72;;;26.20;75.00;;;;;;5027833;28;20296;-64
2023/06/22 08:25:35;;;;;;;12.98;6.95;;;26.20;74.70;;;;;;5027974;28;20047;-63
2023/06/22 08:28:02;;;;;;;11.38;6.13;;;26.30;74.50;;;;;;5032559;28;20558;-65
2023/06/22 08:30:28;;;;;;;12.82;6.65;;;26.40;74.20;;;;;;5028075;28;20033;-64
2023/06/22 08:32:55;;;;;;;10.13;6.70;;;26.50;73.70;;;;;;5030712;28;20428;-63
2023/06/22 08:35:21;;;;;;;11.35;6.22;;;26.60;73.30;;;;;;5027815;28;20778;-64
2023/06/22 08:37:51;;;;;;;10.93;5.38;;;26.70;73.30;;;;;;5029166;28;20036;-65
2023/06/22 08:40:17;;;;;;;10.18;5.97;;;26.80;73.70;;;;;;5029524;28;20412;-64
2023/06/22 08:42:43;;;;;;;10.02;6.00;;;26.90;73.50;;;;;;5022560;28;20040;-64
2023/06/22 08:45:09;;;;;;;10.45;6.57;;;27.00;73.20;;;;;;5029271;28;20037;-63
2023/06/22 08:47:35;;;;;;;8.05;6.10;;;27.10;73.00;;;;;;5032257;28;20103;-64
2023/06/22 08:50:04;;;;;;;13.13;6.07;;;27.20;73.00;;;;;;5030091;28;20049;-64
2023/06/22 08:52:29;;;;;;;12.57;6.20;;;27.30;73.50;;;;;;5029769;28;20136;-65
2023/06/22 08:54:55;;;;;;;11.85;6.68;;;27.50;72.30;;;;;;5031592;28;20156;-63
2023/06/22 08:57:21;;;;;;;10.00;6.35;;;27.60;71.80;;;;;;5031887;28;20116;-64
2023/06/22 08:59:47;;;;;;;12.48;6.43;;;27.70;71.30;;;;;;5030362;28;20025;-64
2023/06/22 09:02:12;;;;;;;14.35;7.10;;;27.80;70.70;;;;;;5038703;28;20112;-63
2023/06/22 09:04:38;;;;;;;8.90;6.05;;;27.90;70.50;;;;;;5040377;28;20401;-63
2023/06/22 09:07:04;;;;;;;10.43;6.15;;;27.90;70.10;;;;;;5037342;28;20524;-64
2023/06/22 09:09:29;;;;;;;12.50;6.93;;;28.00;70.00;;;;;;5038931;28;20466;-63
2023/06/22 09:11:55;;;;;;;9.82;6.07;;;28.00;70.00;;;;;;5032886;28;20113;-63
2023/06/22 09:14:21;;;;;;;8.43;6.25;;;28.20;69.60;;;;;;5037803;28;20049;-64
2023/06/22 09:16:46;;;;;;;10.38;6.32;;;28.30;69.10;;;;;;5038812;28;20571;-63
2023/06/22 09:19:12;;;;;;;11.93;7.40;;;28.30;69.00;;;;;;5040358;28;20041;-64
2023/06/22 09:21:38;;;;;;;11.32;7.05;;;28.40;68.20;;;;;;5032619;28;20572;-64
2023/06/22 09:24:04;;;;;;;14.50;7.43;;;28.50;67.40;;;;;;5039390;28;20033;-64
2023/06/22 09:26:29;;;;;;;14.65;7.70;;;28.50;67.30;;;;;;5036374;28;20048;-65
2023/06/22 09:28:55;;;;;;;13.20;7.70;;;28.50;66.60;;;;;;5038242;28;20045;-63
2023/06/22 09:31:26;;;;;;;16.42;7.95;;;28.50;66.40;;;;;;5039094;28;20219;-64
2023/06/22 09:33:53;;;;;;;14.20;7.18;;;28.50;67.20;;;;;;5040596;28;20122;-64
2023/06/22 09:36:22;;;;;;;11.68;6.95;;;28.50;67.00;;;;;;5039887;28;20033;-64
2023/06/22 09:38:55;;;;;;;16.38;7.90;;;28.60;67.30;;;;;;5040153;28;20037;-63
2023/06/22 09:41:20;;;;;;;15.10;7.78;;;28.60;66.60;;;;;;5040264;28;20037;-63
2023/06/22 09:43:47;;;;;;;13.20;7.55;;;28.70;66.20;;;;;;5038033;28;20037;-64
2023/06/22 09:46:14;;;;;;;13.70;7.57;;;28.80;65.30;;;;;;5036947;28;20045;-63
2023/06/22 09:48:40;;;;;;;12.32;7.70;;;28.80;65.70;;;;;;5038504;28;20436;-63
2023/06/22 09:51:06;;;;;;;14.35;7.57;;;28.80;65.90;;;;;;5035905;28;20514;-63
2023/06/22 09:53:31;;;;;;;11.48;7.82;;;28.90;65.80;;;;;;5037514;28;20663;-62
2023/06/22 09:55:57;;;;;;;11.73;8.43;;;28.90;65.40;;;;;;5035586;28;20033;-64
2023/06/22 09:58:23;;;;;;;13.73;7.93;;;28.90;64.60;;;;;;5031946;28;20039;-64
2023/06/22 10:00:49;;;;;;;10.38;7.00;;;28.90;64.40;;;;;;5039211;28;20056;-64
2023/06/22 10:03:14;;;;;;;10.15;7.32;;;28.80;64.70;;;;;;5036698;28;20040;-64
2023/06/22 10:05:40;;;;;;;10.95;7.35;;;28.80;64.50;;;;;;5041537;28;20044;-63
2023/06/22 10:08:07;;;;;;;13.13;7.43;;;28.80;65.60;;;;;;5039307;28;20481;-63
2023/06/22 10:10:33;;;;;;;11.60;7.25;;;28.80;66.20;;;;;;5036442;28;20051;-63
2023/06/22 10:13:10;;;;;;;11.57;7.38;;;28.80;66.20;;;;;;5036935;28;20150;-63
2023/06/22 10:15:36;;;;;;;11.45;7.60;;;28.90;66.00;;;;;;5036941;28;20029;-63
2023/06/22 10:18:01;;;;;;;9.68;7.43;;;29.00;65.30;;;;;;5036757;28;20125;-64
2023/06/22 10:20:28;;;;;;;10.95;7.03;;;29.20;65.00;;;;;;5036376;28;20393;-62
2023/06/22 10:22:53;;;;;;;14.45;7.70;;;29.20;65.60;;;;;;5033735;28;20378;-64
2023/06/22 10:25:19;;;;;;;13.38;6.82;;;29.30;65.00;;;;;;5032513;28;20038;-64
2023/06/22 10:27:45;;;;;;;11.07;7.15;;;29.40;64.90;;;;;;5034530;28;20029;-63
2023/06/22 10:30:14;;;;;;;10.70;6.15;;;29.50;64.50;;;;;;5037301;28;20439;-63
2023/06/22 10:32:41;;;;;;;11.38;6.53;;;29.60;64.70;;;;;;5036055;28;20037;-64
2023/06/22 10:35:07;;;;;;;10.27;6.43;;;29.70;64.70;;;;;;5033266;28;20052;-64
2023/06/22 10:37:32;;;;;;;10.90;5.88;;;29.80;64.50;;;;;;5029485;28;20037;-64
2023/06/22 10:39:58;;;;;;;11.15;6.90;;;29.90;64.60;;;;;;5028078;28;20124;-64
2023/06/22 10:42:24;;;;;;;9.00;5.70;;;30.00;64.00;;;;;;5028346;28;20034;-64
2023/06/22 10:44:50;;;;;;;9.25;6.30;;;30.10;64.10;;;;;;5023822;28;20044;-64
2023/06/22 10:47:15;;;;;;;9.48;6.38;;;30.20;64.10;;;;;;5033006;28;20195;-64
2023/06/22 10:49:41;;;;;;;8.38;6.05;;;30.30;63.60;;;;;;5035027;28;20075;-65
2023/06/22 10:52:08;;;;;;;10.43;6.47;;;30.40;63.60;;;;;;5033717;28;20037;-65
2023/06/22 10:54:35;;;;;;;11.43;6.13;;;30.50;63.60;;;;;;5032587;28;20124;-64
2023/06/22 10:57:01;;;;;;;11.55;6.32;;;30.70;63.20;;;;;;5033953;28;20094;-64
2023/06/22 10:59:28;;;;;;;13.35;6.20;;;30.80;63.10;;;;;;5036226;28;20528;-63
2023/06/22 11:01:54;;;;;;;10.65;6.25;;;30.90;62.50;;;;;;5034502;28;20041;-64
2023/06/22 11:04:20;;;;;;;10.50;6.75;;;30.90;61.90;;;;;;5031526;28;21215;-64
2023/06/22 11:06:46;;;;;;;10.30;7.43;;;31.10;62.20;;;;;;5031194;28;20044;-65
2023/06/22 11:09:11;;;;;;;12.82;6.90;;;31.10;61.70;;;;;;5032910;28;20416;-64
2023/06/22 11:11:37;;;;;;;11.70;6.38;;;31.20;61.80;;;;;;5031724;28;20029;-63
2023/06/22 11:14:02;;;;;;;11.88;6.93;;;31.30;61.40;;;;;;5030426;28;20063;-65
2023/06/22 11:16:28;;;;;;;11.27;6.95;;;31.40;61.00;;;;;;5030071;28;20048;-64
2023/06/22 11:18:54;;;;;;;13.77;6.15;;;31.40;60.70;;;;;;5031657;28;20049;-64
2023/06/22 11:21:19;;;;;;;16.35;6.60;;;31.50;60.70;;;;;;5032112;28;20034;-64
2023/06/22 11:23:45;;;;;;;14.48;6.25;;;31.60;60.10;;;;;;5027369;28;20501;-64
2023/06/22 11:26:11;;;;;;;8.63;6.20;;;31.70;59.80;;;;;;5029454;28;20052;-64
2023/06/22 11:28:36;;;;;;;10.23;5.68;;;31.70;59.30;;;;;;5029638;28;20041;-64
2023/06/22 11:31:03;;;;;;;11.52;5.97;;;31.80;59.40;;;;;;5032049;28;20033;-64
2023/06/22 11:33:28;;;;;;;11.25;6.10;;;31.80;59.10;;;;;;5032153;28;20112;-64
2023/06/22 11:35:56;;;;;;;10.05;6.28;;;31.90;58.80;;;;;;5032727;28;20128;-64
2023/06/22 11:38:21;;;;;;;10.68;6.30;;;32.00;58.80;;;;;;5032523;28;20047;-64
2023/06/22 11:40:47;;;;;;;14.25;6.25;;;32.00;58.40;;;;;;5028866;28;20037;-65
2023/06/22 11:43:14;;;;;;;9.07;6.07;;;32.10;58.00;;;;;;5031727;28;20045;-64
2023/06/22 11:45:40;;;;;;;12.18;6.07;;;32.10;57.40;;;;;;5029167;28;20033;-65
2023/06/22 11:48:06;;;;;;;11.98;6.00;;;32.10;57.20;;;;;;5036288;28;20060;-65
2023/06/22 11:50:35;;;;;;;13.80;6.20;;;32.10;57.10;;;;;;5032935;28;20083;-64
2023/06/22 11:53:04;;;;;;;9.00;5.60;;;32.00;57.00;;;;;;5031675;28;20230;-64
2023/06/22 11:55:29;;;;;;;13.05;6.13;;;32.00;57.50;;;;;;5032975;28;20519;-64
2023/06/22 11:57:59;;;;;;;13.68;5.72;;;32.00;57.30;;;;;;5030098;28;20029;-63
2023/06/22 12:00:25;;;;;;;10.57;5.47;;;32.00;57.40;;;;;;5031173;28;20494;-63
2023/06/22 12:02:51;;;;;;;12.10;5.50;;;32.00;57.40;;;;;;5031294;28;20038;-64
2023/06/22 12:05:21;;;;;;;13.05;5.32;;;32.00;57.30;;;;;;5031841;28;20044;-65
2023/06/22 12:07:46;;;;;;;10.60;5.40;;;32.00;56.50;;;;;;5035450;28;20025;-64
2023/06/22 12:10:12;;;;;;;9.85;5.30;;;32.00;56.90;;;;;;5034072;28;20052;-64
2023/06/22 12:12:38;;;;;;;14.18;5.65;;;32.00;56.90;;;;;;5028590;28;20420;-62
2023/06/22 12:15:04;;;;;;;8.32;4.90;;;32.00;57.00;;;;;;5033700;28;20065;-64
2023/06/22 12:17:30;;;;;;;9.23;5.18;;;32.00;57.40;;;;;;5030236;28;20059;-64
2023/06/22 12:19:55;;;;;;;8.68;5.25;;;32.00;56.30;;;;;;5027309;28;20100;-64
2023/06/22 12:22:21;;;;;;;8.52;4.80;;;32.00;56.80;;;;;;5029186;28;20128;-64
2023/06/22 12:24:47;;;;;;;9.05;5.45;;;32.00;56.50;;;;;;5033241;28;20112;-64
2023/06/22 12:27:12;;;;;;;10.23;5.57;;;32.00;56.10;;;;;;5032507;28;20508;-63
2023/06/22 12:29:38;;;;;;;12.65;5.15;;;31.90;56.10;;;;;;5031936;28;20114;-65
2023/06/22 12:32:04;;;;;;;10.60;4.85;;;31.90;56.30;;;;;;5031696;28;20525;-63
2023/06/22 12:34:30;;;;;;;11.65;5.72;;;31.80;56.20;;;;;;5030914;28;20405;-64
2023/06/22 12:36:55;;;;;;;10.85;5.00;;;31.80;55.60;;;;;;5030335;28;20059;-64